Time,TemperatureF,DewpointF,PressureIn,WindDirection,WindDirectionDegrees,WindSpeedMPH,WindSpeedGustMPH,Humidity,HourlyPrecipIn,Conditions,Clouds,dailyrainin,SoftwareType,DateUTC
2013-07-22 00:02:00,55.4,53.1,29.93,West,273,3.0,10.0,92,0.00,,,0.00,meteohub,2013-07-22 07:02:00,
2013-07-22 00:07:00,55.4,53.1,29.93,WSW,257,5.0,10.0,92,0.00,,,0.00,meteohub,2013-07-22 07:07:00,
2013-07-22 00:12:00,55.6,53.2,29.93,WNW,294,5.0,10.0,92,0.00,,,0.00,meteohub,2013-07-22 07:12:00,
2013-07-22 00:17:00,55.6,53.2,29.93,WSW,253,5.0,10.0,92,0.00,,,0.00,meteohub,2013-07-22 07:17:00,
2013-07-22 00:22:00,55.8,53.4,29.93,WSW,258,4.0,7.0,92,0.00,,,0.00,meteohub,2013-07-22 07:22:00,
2013-07-22 00:27:00,55.8,53.4,29.93,WSW,250,5.0,6.0,92,0.00,,,0.00,meteohub,2013-07-22 07:27:00,
2013-07-22 00:32:00,55.8,53.4,29.93,NW,309,4.0,8.0,92,0.00,,,0.00,meteohub,2013-07-22 07:32:00,
2013-07-22 00:37:00,55.8,53.4,29.93,WNW,283,4.0,9.0,92,0.00,,,0.00,meteohub,2013-07-22 07:37:00,
2013-07-22 00:42:00,55.8,53.4,29.93,NE,36,8.0,9.0,92,0.00,,,0.00,meteohub,2013-07-22 07:42:00,
2013-07-22 00:47:00,55.8,53.4,29.93,NW,306,4.0,9.0,92,0.00,,,0.00,meteohub,2013-07-22 07:47:00,
2013-07-22 00:52:00,55.8,53.4,29.93,NNW,328,4.0,8.0,92,0.00,,,0.00,meteohub,2013-07-22 07:52:00,
2013-07-22 00:57:00,55.8,53.4,29.93,West,278,5.0,10.0,92,0.00,,,0.00,meteohub,2013-07-22 07:57:00,
2013-07-22 01:02:00,55.8,53.4,29.93,NW,310,3.0,10.0,92,0.00,,,0.00,meteohub,2013-07-22 08:02:00,
2013-07-22 01:07:00,55.8,53.4,29.93,West,275,5.0,8.0,92,0.00,,,0.00,meteohub,2013-07-22 08:07:00,
2013-07-22 01:12:00,55.8,53.4,29.94,WSW,257,5.0,9.0,92,0.00,,,0.00,meteohub,2013-07-22 08:12:00,
2013-07-22 01:17:00,55.9,53.6,29.94,NW,315,3.0,9.0,92,0.00,,,0.00,meteohub,2013-07-22 08:17:00,
2013-07-22 01:22:00,55.9,53.6,29.94,West,279,7.0,9.0,92,0.00,,,0.00,meteohub,2013-07-22 08:22:00,
2013-07-22 01:27:00,55.9,53.6,29.94,West,281,8.0,11.0,92,0.00,,,0.00,meteohub,2013-07-22 08:27:00,
2013-07-22 01:32:00,55.9,53.6,29.94,SW,236,9.0,13.0,92,0.00,,,0.00,meteohub,2013-07-22 08:32:00,
2013-07-22 01:37:00,55.9,53.6,29.94,WNW,285,5.0,13.0,92,0.00,,,0.00,meteohub,2013-07-22 08:37:00,
2013-07-22 01:42:00,55.9,53.6,29.94,WSW,255,6.0,13.0,92,0.00,,,0.00,meteohub,2013-07-22 08:42:00,
2013-07-22 01:47:00,55.9,53.6,29.94,NW,304,5.0,9.0,92,0.00,,,0.00,meteohub,2013-07-22 08:47:00,
2013-07-22 01:52:00,55.9,53.6,29.94,West,281,5.0,9.0,92,0.00,,,0.00,meteohub,2013-07-22 08:52:00,
2013-07-22 01:57:00,56.1,53.8,29.94,WNW,302,4.0,8.0,92,0.00,,,0.00,meteohub,2013-07-22 08:57:00,
2013-07-22 02:02:00,56.1,53.8,29.94,NW,321,3.0,8.0,92,0.00,,,0.00,meteohub,2013-07-22 09:02:00,
2013-07-22 02:07:00,56.1,53.8,29.94,WNW,291,5.0,7.0,92,0.00,,,0.00,meteohub,2013-07-22 09:07:00,
2013-07-22 02:12:00,56.1,53.8,29.94,NW,304,5.0,7.0,92,0.00,,,0.00,meteohub,2013-07-22 09:12:00,
2013-07-22 02:17:00,56.1,53.8,29.94,WNW,288,6.0,8.0,92,0.00,,,0.00,meteohub,2013-07-22 09:17:00,
2013-07-22 02:22:00,56.1,53.8,29.94,West,269,6.0,9.0,92,0.00,,,0.00,meteohub,2013-07-22 09:22:00,
2013-07-22 02:27:00,56.1,53.8,29.94,NW,318,5.0,9.0,92,0.00,,,0.00,meteohub,2013-07-22 09:27:00,
2013-07-22 02:32:00,56.1,53.8,29.94,WNW,283,9.0,9.0,92,0.00,,,0.00,meteohub,2013-07-22 09:32:00,
2013-07-22 02:37:00,56.1,54.1,29.94,NNW,333,6.0,9.0,93,0.00,,,0.00,meteohub,2013-07-22 09:37:00,
2013-07-22 02:42:00,56.1,54.1,29.94,WNW,295,4.0,9.0,93,0.00,,,0.00,meteohub,2013-07-22 09:42:00,
2013-07-22 02:47:00,56.1,54.1,29.94,WNW,295,4.0,9.0,93,0.00,,,0.00,meteohub,2013-07-22 09:47:00,
2013-07-22 02:52:00,56.8,55.2,29.94,North,-999,-999.0,6.0,94,0.00,,,0.00,meteohub,2013-07-22 09:52:00,
2013-07-22 02:57:00,56.7,55.0,29.94,West,279,3.0,4.0,94,0.00,,,0.00,meteohub,2013-07-22 09:57:00,
2013-07-22 03:02:00,56.7,55.0,29.93,West,279,4.0,5.0,94,0.00,,,0.00,meteohub,2013-07-22 10:02:00,
2013-07-22 03:07:00,56.7,55.0,29.93,West,279,1.0,5.0,94,0.00,,,0.00,meteohub,2013-07-22 10:07:00,
2013-07-22 03:12:00,56.7,55.0,29.93,West,279,3.0,7.0,94,0.00,,,0.00,meteohub,2013-07-22 10:12:00,
2013-07-22 03:17:00,56.7,55.0,29.93,West,279,6.0,7.0,94,0.00,,,0.00,meteohub,2013-07-22 10:17:00,
2013-07-22 03:22:00,56.7,55.0,29.93,West,279,1.0,7.0,94,0.00,,,0.00,meteohub,2013-07-22 10:22:00,
2013-07-22 03:27:00,56.7,55.0,29.93,West,279,8.0,8.0,94,0.00,,,0.00,meteohub,2013-07-22 10:27:00,
2013-07-22 03:32:00,56.7,55.0,29.93,West,279,0.0,8.0,94,0.00,,,0.00,meteohub,2013-07-22 10:32:00,
2013-07-22 03:37:00,56.7,55.0,29.93,West,279,3.0,8.0,94,0.00,,,0.00,meteohub,2013-07-22 10:37:00,
2013-07-22 03:42:00,56.5,54.9,29.93,West,279,7.0,9.0,94,0.00,,,0.00,meteohub,2013-07-22 10:42:00,
2013-07-22 03:47:00,56.7,55.0,29.93,West,279,3.0,9.0,94,0.00,,,0.00,meteohub,2013-07-22 10:47:00,
2013-07-22 03:52:00,56.7,55.0,29.93,West,279,3.0,9.0,94,0.00,,,0.00,meteohub,2013-07-22 10:52:00,
2013-07-22 03:57:00,56.7,55.0,29.94,West,279,3.0,8.0,94,0.00,,,0.00,meteohub,2013-07-22 10:57:00,
2013-07-22 04:02:00,56.7,55.0,29.93,West,279,2.0,8.0,94,0.00,,,0.00,meteohub,2013-07-22 11:02:00,
2013-07-22 04:07:00,56.7,55.0,29.93,West,279,6.0,10.0,94,0.00,,,0.00,meteohub,2013-07-22 11:07:00,
2013-07-22 04:12:00,56.8,55.2,29.93,NW,315,5.0,10.0,94,0.00,,,0.00,meteohub,2013-07-22 11:12:00,
2013-07-22 04:17:00,56.8,55.2,29.94,West,279,1.0,10.0,94,0.00,,,0.00,meteohub,2013-07-22 11:17:00,
2013-07-22 04:22:00,56.8,55.2,29.93,West,279,4.0,10.0,94,0.00,,,0.00,meteohub,2013-07-22 11:22:00,
2013-07-22 04:27:00,56.8,55.2,29.94,West,279,2.0,9.0,94,0.00,,,0.00,meteohub,2013-07-22 11:27:00,
2013-07-22 04:32:00,56.8,55.2,29.94,West,279,5.0,9.0,94,0.00,,,0.00,meteohub,2013-07-22 11:32:00,
2013-07-22 04:37:00,56.7,55.0,29.93,West,279,6.0,9.0,94,0.00,,,0.00,meteohub,2013-07-22 11:37:00,
2013-07-22 04:42:00,56.7,55.0,29.94,West,279,4.0,9.0,94,0.00,,,0.00,meteohub,2013-07-22 11:42:00,
2013-07-22 04:47:00,56.8,55.2,29.94,West,279,2.0,9.0,94,0.00,,,0.00,meteohub,2013-07-22 11:47:00,
2013-07-22 04:52:00,56.8,55.2,29.94,West,279,6.0,9.0,94,0.00,,,0.00,meteohub,2013-07-22 11:52:00,
2013-07-22 04:57:00,56.8,55.2,29.94,West,279,6.0,9.0,94,0.00,,,0.00,meteohub,2013-07-22 11:57:00,
2013-07-22 05:02:00,56.8,55.2,29.94,West,279,6.0,8.0,94,0.00,,,0.00,meteohub,2013-07-22 12:02:00,
2013-07-22 05:07:00,56.8,55.2,29.94,West,279,2.0,7.0,94,0.00,,,0.00,meteohub,2013-07-22 12:07:00,
2013-07-22 05:12:00,56.8,55.2,29.94,West,279,5.0,9.0,94,0.00,,,0.00,meteohub,2013-07-22 12:12:00,
2013-07-22 05:17:00,56.8,55.2,29.94,West,279,1.0,9.0,94,0.00,,,0.00,meteohub,2013-07-22 12:17:00,
2013-07-22 05:22:00,57.0,55.2,29.95,West,279,0.0,9.0,94,0.00,,,0.00,meteohub,2013-07-22 12:22:00,
2013-07-22 05:27:00,57.0,55.2,29.94,West,279,1.0,8.0,94,0.00,,,0.00,meteohub,2013-07-22 12:27:00,
2013-07-22 05:32:00,57.0,55.2,29.95,West,279,0.0,6.0,94,0.00,,,0.00,meteohub,2013-07-22 12:32:00,
2013-07-22 05:37:00,57.0,55.2,29.95,West,279,0.0,6.0,94,0.00,,,0.00,meteohub,2013-07-22 12:37:00,
2013-07-22 05:42:00,57.2,55.4,29.95,West,279,2.0,6.0,94,0.00,,,0.00,meteohub,2013-07-22 12:42:00,
2013-07-22 05:47:00,57.4,55.6,29.95,West,279,2.0,4.0,94,0.00,,,0.00,meteohub,2013-07-22 12:47:00,
2013-07-22 05:52:00,57.4,55.6,29.96,West,279,0.0,4.0,94,0.00,,,0.00,meteohub,2013-07-22 12:52:00,
2013-07-22 05:57:00,57.6,55.8,29.96,West,279,2.0,4.0,94,0.00,,,0.00,meteohub,2013-07-22 12:57:00,
2013-07-22 06:02:00,57.6,55.8,29.96,West,279,0.0,4.0,94,0.00,,,0.00,meteohub,2013-07-22 13:02:00,
2013-07-22 06:07:00,57.6,55.8,29.96,West,279,2.0,4.0,94,0.00,,,0.00,meteohub,2013-07-22 13:07:00,
2013-07-22 06:12:00,57.6,55.6,29.96,West,279,2.0,4.0,93,0.00,,,0.00,meteohub,2013-07-22 13:12:00,
2013-07-22 06:17:00,57.6,55.6,29.96,West,279,0.0,5.0,93,0.00,,,0.00,meteohub,2013-07-22 13:17:00,
2013-07-22 06:22:00,57.6,55.6,29.97,West,280,2.0,5.0,93,0.00,,,0.00,meteohub,2013-07-22 13:22:00,
2013-07-22 06:27:00,57.7,55.8,29.97,West,279,0.0,4.0,93,0.00,,,0.00,meteohub,2013-07-22 13:27:00,
2013-07-22 06:32:00,57.7,55.8,29.97,West,279,0.0,4.0,93,0.00,,,0.00,meteohub,2013-07-22 13:32:00,
2013-07-22 06:37:00,57.2,55.2,29.97,North,-999,-999.0,4.0,93,0.00,,,0.00,meteohub,2013-07-22 13:37:00,
2013-07-22 06:42:00,57.2,54.9,29.97,West,268,4.0,4.0,92,0.00,,,0.00,meteohub,2013-07-22 13:42:00,
2013-07-22 06:47:00,57.4,55.0,29.97,West,260,4.0,5.0,92,0.00,,,0.00,meteohub,2013-07-22 13:47:00,
2013-07-22 06:52:00,57.4,55.0,29.97,WNW,283,4.0,5.0,92,0.00,,,0.00,meteohub,2013-07-22 13:52:00,
2013-07-22 06:57:00,57.4,55.0,29.98,WNW,293,3.0,7.0,92,0.00,,,0.00,meteohub,2013-07-22 13:57:00,
2013-07-22 07:02:00,57.4,55.0,29.98,West,264,3.0,7.0,92,0.00,,,0.00,meteohub,2013-07-22 14:02:00,
2013-07-22 07:07:00,57.4,55.0,29.98,NW,306,3.0,7.0,92,0.00,,,0.00,meteohub,2013-07-22 14:07:00,
2013-07-22 07:12:00,57.6,55.2,29.98,WNW,292,0.0,7.0,92,0.00,,,0.00,meteohub,2013-07-22 14:12:00,
2013-07-22 07:17:00,57.6,55.2,29.99,West,259,2.0,7.0,92,0.00,,,0.00,meteohub,2013-07-22 14:17:00,
2013-07-22 07:22:00,57.7,55.4,29.98,NW,320,2.0,6.0,92,0.00,,,0.00,meteohub,2013-07-22 14:22:00,
2013-07-22 07:27:00,57.7,55.4,29.98,WSW,252,1.0,5.0,92,0.00,,,0.00,meteohub,2013-07-22 14:27:00,
2013-07-22 07:32:00,57.7,55.2,29.98,WNW,292,3.0,5.0,91,0.00,,,0.00,meteohub,2013-07-22 14:32:00,
2013-07-22 07:37:00,57.9,55.6,29.98,NW,320,1.0,5.0,92,0.00,,,0.00,meteohub,2013-07-22 14:37:00,
2013-07-22 07:42:00,58.1,55.8,29.99,WNW,287,4.0,5.0,92,0.00,,,0.00,meteohub,2013-07-22 14:42:00,
2013-07-22 07:47:00,58.3,55.6,29.99,West,261,1.0,5.0,91,0.00,,,0.00,meteohub,2013-07-22 14:47:00,
2013-07-22 07:52:00,58.5,55.8,29.98,North,5,1.0,5.0,91,0.00,,,0.00,meteohub,2013-07-22 14:52:00,
2013-07-22 07:57:00,58.6,55.9,29.98,WSW,238,1.0,5.0,91,0.00,,,0.00,meteohub,2013-07-22 14:57:00,
2013-07-22 08:02:00,58.6,55.9,29.98,West,264,1.0,5.0,91,0.00,,,0.00,meteohub,2013-07-22 15:02:00,
2013-07-22 08:07:00,58.6,55.8,29.98,West,259,1.0,5.0,90,0.00,,,0.00,meteohub,2013-07-22 15:07:00,
2013-07-22 08:12:00,58.6,55.8,29.98,West,263,2.0,4.0,90,0.00,,,0.00,meteohub,2013-07-22 15:12:00,
2013-07-22 08:17:00,58.6,55.8,29.98,West,263,2.0,4.0,90,0.00,,,0.00,meteohub,2013-07-22 15:17:00,
2013-07-22 08:22:00,59.5,56.7,29.98,North,-999,-999.0,4.0,90,0.00,,,0.00,meteohub,2013-07-22 15:22:00,
2013-07-22 08:27:00,59.7,56.8,29.98,West,279,1.0,2.0,90,0.00,,,0.00,meteohub,2013-07-22 15:27:00,
2013-07-22 08:32:00,59.9,57.0,29.98,West,279,1.0,1.0,90,0.00,,,0.00,meteohub,2013-07-22 15:32:00,
2013-07-22 08:37:00,59.9,57.0,29.98,West,279,2.0,2.0,90,0.00,,,0.00,meteohub,2013-07-22 15:37:00,
2013-07-22 08:42:00,60.1,56.8,29.98,West,279,0.0,3.0,89,0.00,,,0.00,meteohub,2013-07-22 15:42:00,
2013-07-22 08:47:00,60.1,56.8,29.98,West,279,1.0,4.0,89,0.00,,,0.00,meteohub,2013-07-22 15:47:00,
2013-07-22 08:52:00,60.3,57.0,29.98,West,280,0.0,5.0,89,0.00,,,0.00,meteohub,2013-07-22 15:52:00,
2013-07-22 08:57:00,60.4,57.2,29.98,West,281,0.0,5.0,89,0.00,,,0.00,meteohub,2013-07-22 15:57:00,
2013-07-22 09:02:00,60.8,57.2,29.98,West,279,0.0,5.0,88,0.00,,,0.00,meteohub,2013-07-22 16:02:00,
2013-07-22 09:07:00,61.0,57.4,29.98,West,279,1.0,5.0,88,0.00,,,0.00,meteohub,2013-07-22 16:07:00,
2013-07-22 09:12:00,61.2,57.2,29.99,West,279,0.0,4.0,87,0.00,,,0.00,meteohub,2013-07-22 16:12:00,
2013-07-22 09:17:00,61.3,57.4,29.98,West,279,1.0,4.0,87,0.00,,,0.00,meteohub,2013-07-22 16:17:00,
2013-07-22 09:22:00,61.5,57.4,29.98,West,279,1.0,6.0,86,0.00,,,0.00,meteohub,2013-07-22 16:22:00,
2013-07-22 09:27:00,61.9,57.6,29.98,West,279,4.0,6.0,86,0.00,,,0.00,meteohub,2013-07-22 16:27:00,
2013-07-22 09:32:00,62.1,57.6,29.98,West,279,0.0,6.0,85,0.00,,,0.00,meteohub,2013-07-22 16:32:00,
2013-07-22 09:37:00,62.2,57.4,29.98,West,279,3.0,6.0,84,0.00,,,0.00,meteohub,2013-07-22 16:37:00,
2013-07-22 09:42:00,62.1,57.2,29.98,West,279,4.0,6.0,84,0.00,,,0.00,meteohub,2013-07-22 16:42:00,
2013-07-22 09:47:00,62.2,57.7,29.98,West,279,3.0,6.0,85,0.00,,,0.00,meteohub,2013-07-22 16:47:00,
2013-07-22 09:52:00,62.4,57.6,29.98,West,279,0.0,8.0,84,0.00,,,0.00,meteohub,2013-07-22 16:52:00,
2013-07-22 09:57:00,63.0,58.1,29.98,West,280,1.0,8.0,84,0.00,,,0.00,meteohub,2013-07-22 16:57:00,
2013-07-22 10:02:00,63.7,58.5,29.98,West,279,1.0,8.0,83,0.00,,,0.00,meteohub,2013-07-22 17:02:00,
2013-07-22 10:07:00,63.9,58.3,29.98,West,279,0.0,4.0,82,0.00,,,0.00,meteohub,2013-07-22 17:07:00,
2013-07-22 10:12:00,64.4,58.8,29.98,West,279,0.0,4.0,82,0.00,,,0.00,meteohub,2013-07-22 17:12:00,
2013-07-22 10:17:00,64.8,58.5,29.98,WNW,292,0.0,4.0,80,0.00,,,0.00,meteohub,2013-07-22 17:17:00,
2013-07-22 10:22:00,65.1,58.5,29.98,West,281,1.0,3.0,79,0.00,,,0.00,meteohub,2013-07-22 17:22:00,
2013-07-22 10:27:00,65.1,58.5,29.98,West,279,1.0,3.0,79,0.00,,,0.00,meteohub,2013-07-22 17:27:00,
2013-07-22 10:32:00,65.1,58.1,29.98,West,281,2.0,5.0,78,0.00,,,0.00,meteohub,2013-07-22 17:32:00,
2013-07-22 10:37:00,64.9,57.9,29.98,West,279,0.0,6.0,78,0.00,,,0.00,meteohub,2013-07-22 17:37:00,
2013-07-22 10:42:00,64.9,58.3,29.98,West,279,7.0,7.0,79,0.00,,,0.00,meteohub,2013-07-22 17:42:00,
2013-07-22 10:47:00,64.6,57.9,29.99,West,279,0.0,7.0,79,0.00,,,0.00,meteohub,2013-07-22 17:47:00,
2013-07-22 10:52:00,64.9,58.3,29.99,West,279,0.0,7.0,79,0.00,,,0.00,meteohub,2013-07-22 17:52:00,
2013-07-22 10:57:00,64.9,57.9,29.98,West,279,1.0,7.0,78,0.00,,,0.00,meteohub,2013-07-22 17:57:00,
2013-07-22 11:02:00,64.8,58.1,29.99,West,279,6.0,6.0,79,0.00,,,0.00,meteohub,2013-07-22 18:02:00,
2013-07-22 11:07:00,64.6,57.9,29.98,West,279,3.0,7.0,79,0.00,,,0.00,meteohub,2013-07-22 18:07:00,
2013-07-22 11:17:00,65.3,58.6,29.98,West,279,0.0,7.0,79,0.00,,,0.00,meteohub,2013-07-22 18:17:00,
2013-07-22 11:22:00,65.1,58.1,29.98,West,279,1.0,4.0,78,0.00,,,0.00,meteohub,2013-07-22 18:22:00,
2013-07-22 11:32:00,64.8,57.7,29.98,WNW,288,2.0,5.0,78,0.00,,,0.00,meteohub,2013-07-22 18:32:00,
2013-07-22 11:37:00,64.6,57.9,29.98,WNW,286,0.0,6.0,79,0.00,,,0.00,meteohub,2013-07-22 18:37:00,
2013-07-22 11:47:00,65.5,58.5,29.98,ENE,58,1.0,7.0,78,0.00,,,0.00,meteohub,2013-07-22 18:47:00,
2013-07-22 11:52:00,65.5,58.1,29.98,NW,320,0.0,7.0,77,0.00,,,0.00,meteohub,2013-07-22 18:52:00,
2013-07-22 11:57:00,65.7,58.3,29.98,NW,326,0.0,5.0,77,0.00,,,0.00,meteohub,2013-07-22 18:57:00,
2013-07-22 12:07:00,65.5,58.1,29.98,West,279,1.0,6.0,77,0.00,,,0.00,meteohub,2013-07-22 19:07:00,
2013-07-22 12:12:00,65.7,57.9,29.97,West,279,3.0,8.0,76,0.00,,,0.00,meteohub,2013-07-22 19:12:00,
2013-07-22 12:17:00,65.7,58.3,29.97,West,279,4.0,8.0,77,0.00,,,0.00,meteohub,2013-07-22 19:17:00,
2013-07-22 12:27:00,64.9,57.9,29.97,West,279,4.0,7.0,78,0.00,,,0.00,meteohub,2013-07-22 19:27:00,
2013-07-22 12:32:00,65.3,58.3,29.97,West,279,1.0,8.0,78,0.00,,,0.00,meteohub,2013-07-22 19:32:00,
2013-07-22 12:37:00,65.8,58.1,29.97,West,279,1.0,8.0,76,0.00,,,0.00,meteohub,2013-07-22 19:37:00,
2013-07-22 12:42:00,66.2,58.5,29.98,West,279,4.0,8.0,76,0.00,,,0.00,meteohub,2013-07-22 19:42:00,
2013-07-22 12:52:00,66.6,58.8,29.97,WNW,288,0.0,7.0,76,0.00,,,0.00,meteohub,2013-07-22 19:52:00,
2013-07-22 12:57:00,67.5,59.2,29.98,West,279,1.0,7.0,75,0.00,,,0.00,meteohub,2013-07-22 19:57:00,
2013-07-22 13:02:00,67.8,58.8,29.98,West,279,1.0,7.0,73,0.00,,,0.00,meteohub,2013-07-22 20:02:00,
2013-07-22 13:07:00,67.8,58.8,29.98,West,279,3.0,5.0,73,0.00,,,0.00,meteohub,2013-07-22 20:07:00,
2013-07-22 13:12:00,67.8,58.8,29.97,West,279,3.0,5.0,73,0.00,,,0.00,meteohub,2013-07-22 20:12:00,
2013-07-22 13:17:00,67.6,58.6,29.98,West,279,4.0,5.0,73,0.00,,,0.00,meteohub,2013-07-22 20:17:00,
2013-07-22 13:22:00,66.7,58.1,29.98,ENE,65,3.0,7.0,74,0.00,,,0.00,meteohub,2013-07-22 20:22:00,
2013-07-22 13:27:00,66.4,58.3,29.98,West,279,3.0,10.0,75,0.00,,,0.00,meteohub,2013-07-22 20:27:00,
2013-07-22 13:32:00,65.8,58.1,29.98,West,279,2.0,10.0,76,0.00,,,0.00,meteohub,2013-07-22 20:32:00,
2013-07-22 13:37:00,65.7,58.3,29.98,West,279,2.0,8.0,77,0.00,,,0.00,meteohub,2013-07-22 20:37:00,
2013-07-22 13:42:00,65.1,57.7,29.98,West,279,4.0,8.0,77,0.00,,,0.00,meteohub,2013-07-22 20:42:00,
2013-07-22 13:47:00,64.8,58.1,29.97,West,279,2.0,8.0,79,0.00,,,0.00,meteohub,2013-07-22 20:47:00,
2013-07-22 13:52:00,64.8,58.1,29.97,West,279,0.0,8.0,79,0.00,,,0.00,meteohub,2013-07-22 20:52:00,
2013-07-22 13:57:00,65.1,58.1,29.97,West,279,2.0,7.0,78,0.00,,,0.00,meteohub,2013-07-22 20:57:00,
2013-07-22 14:02:00,65.5,58.1,29.97,West,279,4.0,7.0,77,0.00,,,0.00,meteohub,2013-07-22 21:02:00,
2013-07-22 14:07:00,65.5,58.5,29.97,West,279,2.0,7.0,78,0.00,,,0.00,meteohub,2013-07-22 21:07:00,
2013-07-22 14:12:00,65.7,58.3,29.97,West,279,4.0,7.0,77,0.00,,,0.00,meteohub,2013-07-22 21:12:00,
2013-07-22 14:17:00,66.2,58.1,29.97,West,279,2.0,7.0,75,0.00,,,0.00,meteohub,2013-07-22 21:17:00,
2013-07-22 14:22:00,65.8,57.7,29.97,West,279,2.0,7.0,75,0.00,,,0.00,meteohub,2013-07-22 21:22:00,
2013-07-22 14:27:00,65.1,57.4,29.97,ENE,61,2.0,7.0,76,0.00,,,0.00,meteohub,2013-07-22 21:27:00,
2013-07-22 14:32:00,65.1,57.7,29.97,West,279,3.0,7.0,77,0.00,,,0.00,meteohub,2013-07-22 21:32:00,
2013-07-22 14:37:00,65.8,58.1,29.97,West,279,4.0,9.0,76,0.00,,,0.00,meteohub,2013-07-22 21:37:00,
2013-07-22 14:42:00,65.7,57.9,29.97,West,279,3.0,9.0,76,0.00,,,0.00,meteohub,2013-07-22 21:42:00,
2013-07-22 14:47:00,65.5,57.7,29.97,West,279,2.0,9.0,76,0.00,,,0.00,meteohub,2013-07-22 21:47:00,
2013-07-22 14:52:00,65.3,57.9,29.97,West,279,1.0,6.0,77,0.00,,,0.00,meteohub,2013-07-22 21:52:00,
2013-07-22 14:57:00,65.5,58.1,29.97,West,279,1.0,6.0,77,0.00,,,0.00,meteohub,2013-07-22 21:57:00,
2013-07-22 15:02:00,65.8,58.1,29.96,West,279,0.0,5.0,76,0.00,,,0.00,meteohub,2013-07-22 22:02:00,
2013-07-22 15:07:00,66.0,57.9,29.97,West,279,1.0,5.0,75,0.00,,,0.00,meteohub,2013-07-22 22:07:00,
2013-07-22 15:12:00,66.0,58.3,29.96,West,279,2.0,6.0,76,0.00,,,0.00,meteohub,2013-07-22 22:12:00,
2013-07-22 15:17:00,66.6,58.5,29.96,West,279,0.0,6.0,75,0.00,,,0.00,meteohub,2013-07-22 22:17:00,
2013-07-22 15:22:00,66.6,58.5,29.96,West,279,2.0,6.0,75,0.00,,,0.00,meteohub,2013-07-22 22:22:00,
2013-07-22 15:27:00,66.7,58.6,29.96,West,279,3.0,6.0,75,0.00,,,0.00,meteohub,2013-07-22 22:27:00,
2013-07-22 15:32:00,66.7,58.6,29.96,West,279,4.0,6.0,75,0.00,,,0.00,meteohub,2013-07-22 22:32:00,
2013-07-22 15:37:00,66.7,58.1,29.96,WNW,289,1.0,6.0,74,0.00,,,0.00,meteohub,2013-07-22 22:37:00,
2013-07-22 15:42:00,66.7,58.1,29.96,NE,50,3.0,6.0,74,0.00,,,0.00,meteohub,2013-07-22 22:42:00,
2013-07-22 15:47:00,66.6,58.5,29.96,West,279,4.0,7.0,75,0.00,,,0.00,meteohub,2013-07-22 22:47:00,
2013-07-22 15:52:00,66.6,58.5,29.96,NW,308,1.0,7.0,75,0.00,,,0.00,meteohub,2013-07-22 22:52:00,
2013-07-22 15:57:00,66.6,58.1,29.95,West,279,3.0,7.0,74,0.00,,,0.00,meteohub,2013-07-22 22:57:00,
2013-07-22 16:02:00,66.0,57.9,29.95,West,279,2.0,7.0,75,0.00,,,0.00,meteohub,2013-07-22 23:02:00,
2013-07-22 16:07:00,65.1,57.7,29.95,West,279,4.0,9.0,77,0.00,,,0.00,meteohub,2013-07-22 23:07:00,
2013-07-22 16:12:00,65.3,58.3,29.95,West,279,3.0,10.0,78,0.00,,,0.00,meteohub,2013-07-22 23:12:00,
2013-07-22 16:17:00,65.5,58.1,29.96,WNW,290,1.0,10.0,77,0.00,,,0.00,meteohub,2013-07-22 23:17:00,
2013-07-22 16:22:00,65.1,57.7,29.95,West,279,4.0,9.0,77,0.00,,,0.00,meteohub,2013-07-22 23:22:00,
2013-07-22 16:27:00,64.2,57.6,29.95,West,279,4.0,16.0,79,0.00,,,0.00,meteohub,2013-07-22 23:27:00,
2013-07-22 16:32:00,64.0,57.4,29.95,West,279,11.0,16.0,79,0.00,,,0.00,meteohub,2013-07-22 23:32:00,
2013-07-22 16:37:00,63.5,57.2,29.94,West,279,4.0,16.0,80,0.00,,,0.00,meteohub,2013-07-22 23:37:00,
2013-07-22 16:42:00,63.1,57.6,29.95,West,279,4.0,13.0,82,0.00,,,0.00,meteohub,2013-07-22 23:42:00,
2013-07-22 16:47:00,63.1,57.6,29.95,West,279,3.0,13.0,82,0.00,,,0.00,meteohub,2013-07-22 23:47:00,
2013-07-22 16:52:00,63.1,57.6,29.96,West,279,5.0,8.0,82,0.00,,,0.00,meteohub,2013-07-22 23:52:00,
2013-07-22 16:57:00,63.0,57.4,29.96,West,279,4.0,10.0,82,0.00,,,0.00,meteohub,2013-07-22 23:57:00,
2013-07-22 17:02:00,62.6,57.4,29.96,West,279,7.0,10.0,83,0.00,,,0.00,meteohub,2013-07-23 00:02:00,
2013-07-22 17:07:00,62.8,57.6,29.96,West,279,1.0,9.0,83,0.00,,,0.00,meteohub,2013-07-23 00:07:00,
2013-07-22 17:12:00,63.0,57.4,29.96,WNW,286,3.0,9.0,82,0.00,,,0.00,meteohub,2013-07-23 00:12:00,
2013-07-22 17:17:00,62.4,56.8,29.96,West,279,9.0,10.0,82,0.00,,,0.00,meteohub,2013-07-23 00:17:00,
2013-07-22 17:22:00,62.1,57.2,29.96,NW,304,3.0,10.0,84,0.00,,,0.00,meteohub,2013-07-23 00:22:00,
2013-07-22 17:27:00,62.1,57.2,29.96,West,279,8.0,14.0,84,0.00,,,0.00,meteohub,2013-07-23 00:27:00,
2013-07-22 17:32:00,62.2,57.7,29.97,West,279,8.0,14.0,85,0.00,,,0.00,meteohub,2013-07-23 00:32:00,
2013-07-22 17:37:00,62.1,57.6,29.97,West,280,1.0,14.0,85,0.00,,,0.00,meteohub,2013-07-23 00:37:00,
2013-07-22 17:42:00,61.9,57.4,29.97,West,279,1.0,8.0,85,0.00,,,0.00,meteohub,2013-07-23 00:42:00,
2013-07-22 17:47:00,61.9,57.4,29.97,West,279,5.0,8.0,85,0.00,,,0.00,meteohub,2013-07-23 00:47:00,
2013-07-22 17:52:00,61.9,57.4,29.97,West,279,0.0,8.0,85,0.00,,,0.00,meteohub,2013-07-23 00:52:00,
2013-07-22 17:57:00,61.9,57.4,29.97,West,279,1.0,8.0,85,0.00,,,0.00,meteohub,2013-07-23 00:57:00,
2013-07-22 18:02:00,61.7,57.4,29.97,WNW,289,2.0,7.0,86,0.00,,,0.00,meteohub,2013-07-23 01:02:00,
2013-07-22 18:07:00,61.9,57.6,29.97,West,279,0.0,5.0,86,0.00,,,0.00,meteohub,2013-07-23 01:07:00,
2013-07-22 18:17:00,62.4,58.1,29.98,West,279,3.0,5.0,86,0.00,,,0.00,meteohub,2013-07-23 01:17:00,
2013-07-22 18:22:00,62.6,57.7,29.98,West,279,0.0,5.0,84,0.00,,,0.00,meteohub,2013-07-23 01:22:00,
2013-07-22 18:27:00,62.4,57.6,29.98,West,279,0.0,5.0,84,0.00,,,0.00,meteohub,2013-07-23 01:27:00,
2013-07-22 18:32:00,62.6,57.7,29.98,West,279,3.0,5.0,84,0.00,,,0.00,meteohub,2013-07-23 01:32:00,
2013-07-22 18:37:00,62.6,57.7,29.98,West,279,3.0,6.0,84,0.00,,,0.00,meteohub,2013-07-23 01:37:00,
2013-07-22 18:42:00,62.2,57.4,29.99,West,279,1.0,7.0,84,0.00,,,0.00,meteohub,2013-07-23 01:42:00,
2013-07-22 18:47:00,62.1,57.6,29.98,West,279,3.0,7.0,85,0.00,,,0.00,meteohub,2013-07-23 01:47:00,
2013-07-22 18:57:00,61.9,57.6,29.99,West,279,7.0,7.0,86,0.00,,,0.00,meteohub,2013-07-23 01:57:00,
2013-07-22 19:02:00,61.9,57.6,29.98,West,279,3.0,9.0,86,0.00,,,0.00,meteohub,2013-07-23 02:02:00,
2013-07-22 19:07:00,61.5,57.4,29.98,West,279,0.0,9.0,86,0.00,,,0.00,meteohub,2013-07-23 02:07:00,
2013-07-22 19:12:00,61.7,57.4,29.98,West,279,0.0,7.0,86,0.00,,,0.00,meteohub,2013-07-23 02:12:00,
2013-07-22 19:17:00,61.7,57.4,29.98,West,279,8.0,8.0,86,0.00,,,0.00,meteohub,2013-07-23 02:17:00,
2013-07-22 19:22:00,61.3,56.8,29.98,West,280,2.0,9.0,85,0.00,,,0.00,meteohub,2013-07-23 02:22:00,
2013-07-22 19:27:00,61.3,57.2,29.97,ENE,57,1.0,9.0,86,0.00,,,0.00,meteohub,2013-07-23 02:27:00,
2013-07-22 19:32:00,61.3,57.2,29.97,West,279,0.0,9.0,86,0.00,,,0.00,meteohub,2013-07-23 02:32:00,
2013-07-22 19:37:00,61.3,57.2,29.97,West,279,0.0,6.0,86,0.00,,,0.00,meteohub,2013-07-23 02:37:00,
2013-07-22 19:42:00,61.2,57.0,29.98,West,279,0.0,5.0,86,0.00,,,0.00,meteohub,2013-07-23 02:42:00,
2013-07-22 19:47:00,61.2,57.0,29.98,West,279,0.0,5.0,86,0.00,,,0.00,meteohub,2013-07-23 02:47:00,
2013-07-22 19:52:00,61.0,57.0,29.97,West,281,1.0,5.0,87,0.00,,,0.00,meteohub,2013-07-23 02:52:00,
2013-07-22 19:57:00,61.0,57.0,29.98,West,279,2.0,6.0,87,0.00,,,0.00,meteohub,2013-07-23 02:57:00,
2013-07-22 20:02:00,61.0,57.0,29.98,West,279,1.0,6.0,87,0.00,,,0.00,meteohub,2013-07-23 03:02:00,
2013-07-22 20:07:00,60.6,56.7,29.97,West,281,3.0,6.0,87,0.00,,,0.00,meteohub,2013-07-23 03:07:00,
2013-07-22 20:12:00,60.4,56.5,29.98,West,279,3.0,6.0,87,0.00,,,0.00,meteohub,2013-07-23 03:12:00,
2013-07-22 20:17:00,60.3,56.7,29.97,West,279,3.0,6.0,88,0.00,,,0.00,meteohub,2013-07-23 03:17:00,
2013-07-22 20:22:00,60.1,56.5,29.97,West,279,1.0,5.0,88,0.00,,,0.00,meteohub,2013-07-23 03:22:00,
2013-07-22 20:27:00,60.1,56.8,29.97,West,279,1.0,7.0,89,0.00,,,0.00,meteohub,2013-07-23 03:27:00,
2013-07-22 20:32:00,59.9,56.7,29.97,West,279,1.0,7.0,89,0.00,,,0.00,meteohub,2013-07-23 03:32:00,
2013-07-22 20:37:00,59.7,56.5,29.97,West,279,1.0,7.0,89,0.00,,,0.00,meteohub,2013-07-23 03:37:00,
2013-07-22 20:42:00,59.5,56.3,29.97,West,279,3.0,6.0,89,0.00,,,0.00,meteohub,2013-07-23 03:42:00,
2013-07-22 20:47:00,59.7,56.5,29.97,WNW,303,1.0,4.0,89,0.00,,,0.00,meteohub,2013-07-23 03:47:00,
2013-07-22 20:52:00,59.5,56.3,29.97,West,279,1.0,4.0,89,0.00,,,0.00,meteohub,2013-07-23 03:52:00,
2013-07-22 20:57:00,59.5,56.3,29.97,West,281,1.0,4.0,89,0.00,,,0.00,meteohub,2013-07-23 03:57:00,
2013-07-22 21:02:00,59.5,56.3,29.97,West,279,3.0,4.0,89,0.00,,,0.00,meteohub,2013-07-23 04:02:00,
2013-07-22 21:07:00,59.4,56.1,29.98,West,279,0.0,7.0,89,0.00,,,0.00,meteohub,2013-07-23 04:07:00,
2013-07-22 21:12:00,59.4,56.1,29.98,West,279,1.0,7.0,89,0.00,,,0.00,meteohub,2013-07-23 04:12:00,
2013-07-22 21:17:00,59.4,56.5,29.98,West,279,0.0,7.0,90,0.00,,,0.00,meteohub,2013-07-23 04:17:00,
2013-07-22 21:22:00,59.2,56.3,29.98,ENE,68,7.0,7.0,90,0.00,,,0.00,meteohub,2013-07-23 04:22:00,
2013-07-22 21:27:00,59.2,56.3,29.98,West,279,3.0,7.0,90,0.00,,,0.00,meteohub,2013-07-23 04:27:00,
2013-07-22 21:32:00,59.2,56.3,29.99,West,279,0.0,7.0,90,0.00,,,0.00,meteohub,2013-07-23 04:32:00,
2013-07-22 21:37:00,59.2,56.3,30.00,West,279,3.0,7.0,90,0.00,,,0.00,meteohub,2013-07-23 04:37:00,
2013-07-22 21:42:00,59.2,56.3,29.99,West,279,3.0,6.0,90,0.00,,,0.00,meteohub,2013-07-23 04:42:00,
2013-07-22 21:47:00,59.0,56.1,30.00,West,279,0.0,6.0,90,0.00,,,0.00,meteohub,2013-07-23 04:47:00,
2013-07-22 21:52:00,59.2,56.3,30.00,West,279,0.0,6.0,90,0.00,,,0.00,meteohub,2013-07-23 04:52:00,
2013-07-22 21:57:00,59.2,56.5,30.00,West,279,0.0,6.0,91,0.00,,,0.00,meteohub,2013-07-23 04:57:00,
2013-07-22 22:02:00,59.2,56.3,30.00,West,279,0.0,4.0,90,0.00,,,0.00,meteohub,2013-07-23 05:02:00,
2013-07-22 22:07:00,59.2,56.5,30.00,West,279,0.0,3.0,91,0.00,,,0.00,meteohub,2013-07-23 05:07:00,
2013-07-22 22:12:00,59.2,56.3,30.00,West,279,1.0,4.0,90,0.00,,,0.00,meteohub,2013-07-23 05:12:00,
2013-07-22 22:17:00,59.2,56.3,30.00,West,279,0.0,5.0,90,0.00,,,0.00,meteohub,2013-07-23 05:17:00,
2013-07-22 22:22:00,59.0,56.1,30.00,West,279,1.0,6.0,90,0.00,,,0.00,meteohub,2013-07-23 05:22:00,
2013-07-22 22:27:00,58.8,55.9,30.00,West,279,4.0,6.0,90,0.00,,,0.00,meteohub,2013-07-23 05:27:00,
2013-07-22 22:32:00,58.8,56.1,30.00,West,279,3.0,5.0,91,0.00,,,0.00,meteohub,2013-07-23 05:32:00,
2013-07-22 22:37:00,58.8,56.1,30.00,West,279,0.0,6.0,91,0.00,,,0.00,meteohub,2013-07-23 05:37:00,
2013-07-22 22:42:00,58.8,56.1,30.01,WNW,289,0.0,6.0,91,0.00,,,0.00,meteohub,2013-07-23 05:42:00,
2013-07-22 22:47:00,58.6,55.9,30.00,West,279,0.0,6.0,91,0.00,,,0.00,meteohub,2013-07-23 05:47:00,
2013-07-22 22:52:00,58.8,56.1,30.00,West,279,3.0,6.0,91,0.00,,,0.00,meteohub,2013-07-23 05:52:00,
2013-07-22 22:57:00,58.8,56.1,30.00,West,279,0.0,6.0,91,0.00,,,0.00,meteohub,2013-07-23 05:57:00,
2013-07-22 23:02:00,58.8,56.1,29.99,NW,325,2.0,4.0,91,0.00,,,0.00,meteohub,2013-07-23 06:02:00,
2013-07-22 23:07:00,58.6,55.9,29.99,WNW,297,0.0,6.0,91,0.00,,,0.00,meteohub,2013-07-23 06:07:00,
2013-07-22 23:12:00,58.5,55.8,29.98,West,279,0.0,10.0,91,0.00,,,0.00,meteohub,2013-07-23 06:12:00,
2013-07-22 23:17:00,58.5,56.1,29.99,West,279,4.0,10.0,92,0.00,,,0.00,meteohub,2013-07-23 06:17:00,
2013-07-22 23:22:00,58.3,55.9,29.99,West,279,5.0,10.0,92,0.00,,,0.00,meteohub,2013-07-23 06:22:00,
2013-07-22 23:27:00,58.3,55.9,29.99,West,279,1.0,5.0,92,0.00,,,0.00,meteohub,2013-07-23 06:27:00,
2013-07-22 23:32:00,58.3,55.9,29.99,West,279,3.0,6.0,92,0.00,,,0.00,meteohub,2013-07-23 06:32:00,
2013-07-22 23:37:00,58.3,55.9,29.99,West,279,3.0,6.0,92,0.00,,,0.00,meteohub,2013-07-23 06:37:00,
2013-07-22 23:42:00,57.9,55.6,29.99,WNW,293,1.0,6.0,92,0.00,,,0.00,meteohub,2013-07-23 06:42:00,
2013-07-22 23:47:00,57.9,55.6,29.99,West,279,2.0,6.0,92,0.00,,,0.00,meteohub,2013-07-23 06:47:00,
2013-07-22 23:52:00,57.9,55.6,30.00,West,279,1.0,6.0,92,0.00,,,0.00,meteohub,2013-07-23 06:52:00,
2013-07-22 23:57:00,58.1,55.8,30.00,NNW,333,1.0,6.0,92,0.00,,,0.00,meteohub,2013-07-23 06:57:00,